Time,TemperatureF,DewpointF,PressureIn,WindDirection,WindDirectionDegrees,WindSpeedMPH,WindSpeedGustMPH,Humidity,HourlyPrecipIn,Conditions,Clouds,dailyrainin,SoftwareType,DateUTC
2013-03-19 00:00:00,42.3,23.0,30.03,East,90,3.0,4.0,46,0.00,CLR,CLR,0.00,WeatherDisplay:10.37,2013-03-19 05:00:00,
2013-03-19 00:06:00,42.1,22.8,30.03,East,94,0.0,3.0,46,0.00,CLR,CLR,0.00,WeatherDisplay:10.37,2013-03-19 05:06:00,
2013-03-19 00:12:00,41.7,22.9,30.03,East,86,0.0,0.0,47,0.00,CLR,CLR,0.00,WeatherDisplay:10.37,2013-03-19 05:12:00,
2013-03-19 00:18:00,41.2,23.0,30.03,East,85,0.0,0.0,48,0.00,CLR,CLR,0.00,WeatherDisplay:10.37,2013-03-19 05:18:00,
2013-03-19 00:24:00,40.6,22.9,30.03,East,83,0.0,0.0,49,0.00,CLR,CLR,0.00,WeatherDisplay:10.37,2013-03-19 05:24:00,
2013-03-19 00:30:00,40.5,22.8,30.03,East,95,0.0,0.0,49,0.00,CLR,CLR,0.00,WeatherDisplay:10.37,2013-03-19 05:30:00,
2013-03-19 00:36:00,40.3,22.6,30.04,East,98,0.0,0.0,49,0.00,CLR,CLR,0.00,WeatherDisplay:10.37,2013-03-19 05:36:00,
2013-03-19 00:42:00,40.5,22.3,30.04,East,85,2.0,5.0,48,0.00,CLR,CLR,0.00,WeatherDisplay:10.37,2013-03-19 05:42:00,
2013-03-19 00:48:00,40.7,22.5,30.04,East,92,5.0,7.0,48,0.00,CLR,CLR,0.00,WeatherDisplay:10.37,2013-03-19 05:48:00,
2013-03-19 00:54:00,40.8,22.6,30.04,East,82,5.0,7.0,48,0.00,CLR,CLR,0.00,WeatherDisplay:10.37,2013-03-19 05:54:00,
2013-03-19 01:00:00,40.6,22.4,30.04,East,86,2.0,3.0,48,0.00,CLR,CLR,0.00,WeatherDisplay:10.37,2013-03-19 06:00:00,
2013-03-19 01:06:00,40.5,22.3,30.03,East,89,5.0,6.0,48,0.00,CLR,CLR,0.00,WeatherDisplay:10.37,2013-03-19 06:06:00,
2013-03-19 01:12:00,40.6,22.4,30.03,East,83,3.0,6.0,48,0.00,CLR,CLR,0.00,WeatherDisplay:10.37,2013-03-19 06:12:00,
2013-03-19 01:18:00,40.5,22.3,30.02,ENE,76,3.0,7.0,48,0.00,CLR,CLR,0.00,WeatherDisplay:10.37,2013-03-19 06:18:00,
2013-03-19 01:24:00,40.1,22.0,30.03,NNE,24,0.0,2.0,48,0.00,CLR,CLR,0.00,WeatherDisplay:10.37,2013-03-19 06:24:00,
2013-03-19 01:30:00,39.6,22.0,30.05,North,360,1.0,2.0,49,0.00,CLR,CLR,0.00,WeatherDisplay:10.37,2013-03-19 06:30:00,
2013-03-19 01:36:00,39.6,22.0,30.05,ENE,58,7.0,9.0,49,0.00,CLR,CLR,0.00,WeatherDisplay:10.37,2013-03-19 06:36:00,
2013-03-19 01:42:00,39.7,22.1,30.05,East,80,6.0,9.0,49,0.00,CLR,CLR,0.00,WeatherDisplay:10.37,2013-03-19 06:42:00,
2013-03-19 01:48:00,39.6,22.5,30.06,East,79,6.0,7.0,50,0.00,CLR,CLR,0.00,WeatherDisplay:10.37,2013-03-19 06:48:00,
2013-03-19 01:54:00,39.6,22.5,30.06,East,84,8.0,13.0,50,0.00,CLR,CLR,0.00,WeatherDisplay:10.37,2013-03-19 06:54:00,
2013-03-19 02:00:00,39.4,22.3,30.06,ENE,76,3.0,6.0,50,0.00,CLR,CLR,0.00,WeatherDisplay:10.37,2013-03-19 07:00:00,
2013-03-19 02:06:00,39.0,22.4,30.06,East,81,6.0,9.0,51,0.00,CLR,CLR,0.00,WeatherDisplay:10.37,2013-03-19 07:06:00,
2013-03-19 02:12:00,38.8,22.2,30.06,East,84,7.0,8.0,51,0.00,CLR,CLR,0.00,WeatherDisplay:10.37,2013-03-19 07:12:00,
2013-03-19 02:18:00,38.7,22.1,30.07,East,79,6.0,7.0,51,0.00,CLR,CLR,0.00,WeatherDisplay:10.37,2013-03-19 07:18:00,
2013-03-19 02:24:00,38.2,22.1,30.07,East,95,8.0,13.0,52,0.00,CLR,CLR,0.00,WeatherDisplay:10.37,2013-03-19 07:24:00,
2013-03-19 02:30:00,37.9,21.8,30.07,East,85,8.0,14.0,52,0.00,CLR,CLR,0.00,WeatherDisplay:10.37,2013-03-19 07:30:00,
2013-03-19 02:36:00,37.8,21.3,30.07,East,90,7.0,14.0,51,0.00,CLR,CLR,0.00,WeatherDisplay:10.37,2013-03-19 07:36:00,
2013-03-19 02:42:00,37.6,21.1,30.07,East,98,6.0,8.0,51,0.00,CLR,CLR,0.00,WeatherDisplay:10.37,2013-03-19 07:42:00,
2013-03-19 02:48:00,37.4,20.9,30.07,East,80,8.0,14.0,51,0.00,CLR,CLR,0.00,WeatherDisplay:10.37,2013-03-19 07:48:00,
2013-03-19 02:54:00,37.2,20.7,30.07,East,89,5.0,13.0,51,0.00,CLR,CLR,0.00,WeatherDisplay:10.37,2013-03-19 07:54:00,
2013-03-19 03:00:00,36.9,20.4,30.07,East,92,8.0,9.0,51,0.00,CLR,CLR,0.00,WeatherDisplay:10.37,2013-03-19 08:00:00,
2013-03-19 03:06:00,36.9,20.0,30.07,East,83,5.0,9.0,50,0.00,CLR,CLR,0.00,WeatherDisplay:10.37,2013-03-19 08:06:00,
2013-03-19 03:12:00,36.9,20.0,30.08,East,87,6.0,10.0,50,0.00,CLR,CLR,0.00,WeatherDisplay:10.37,2013-03-19 08:12:00,
2013-03-19 03:18:00,36.7,19.8,30.08,ENE,72,9.0,14.0,50,0.00,CLR,CLR,0.00,WeatherDisplay:10.37,2013-03-19 08:18:00,
2013-03-19 03:24:00,36.5,19.6,30.08,ENE,74,8.0,12.0,50,0.00,CLR,CLR,0.00,WeatherDisplay:10.37,2013-03-19 08:24:00,
2013-03-19 03:30:00,36.3,19.4,30.08,East,96,6.0,9.0,50,0.00,CLR,CLR,0.00,WeatherDisplay:10.37,2013-03-19 08:30:00,
2013-03-19 03:36:00,36.1,19.2,30.08,East,89,6.0,12.0,50,0.00,CLR,CLR,0.00,WeatherDisplay:10.37,2013-03-19 08:36:00,
2013-03-19 03:42:00,36.0,19.1,30.08,East,82,7.0,9.0,50,0.00,CLR,CLR,0.00,WeatherDisplay:10.37,2013-03-19 08:42:00,
2013-03-19 03:48:00,36.0,19.1,30.08,East,79,6.0,7.0,50,0.00,CLR,CLR,0.00,WeatherDisplay:10.37,2013-03-19 08:48:00,
2013-03-19 03:54:00,35.8,19.0,30.08,ESE,104,8.0,12.0,50,0.00,CLR,CLR,0.00,WeatherDisplay:10.37,2013-03-19 08:54:00,
2013-03-19 04:00:00,35.8,19.0,30.08,East,97,6.0,9.0,50,0.00,CLR,CLR,0.00,WeatherDisplay:10.37,2013-03-19 09:00:00,
2013-03-19 04:06:00,35.6,18.8,30.07,East,86,7.0,8.0,50,0.00,CLR,CLR,0.00,WeatherDisplay:10.37,2013-03-19 09:06:00,
2013-03-19 04:12:00,35.4,19.0,30.07,East,92,3.0,9.0,51,0.00,CLR,CLR,0.00,WeatherDisplay:10.37,2013-03-19 09:12:00,
2013-03-19 04:18:00,35.2,18.9,30.09,East,83,5.0,8.0,51,0.00,CLR,CLR,0.00,WeatherDisplay:10.37,2013-03-19 09:18:00,
2013-03-19 04:24:00,35.1,18.8,30.09,ENE,72,5.0,8.0,51,0.00,CLR,CLR,0.00,WeatherDisplay:10.37,2013-03-19 09:24:00,
2013-03-19 04:30:00,35.1,18.8,30.09,East,83,5.0,8.0,51,0.00,CLR,CLR,0.00,WeatherDisplay:10.37,2013-03-19 09:30:00,
2013-03-19 04:36:00,34.7,18.9,30.09,East,83,6.0,9.0,52,0.00,CLR,CLR,0.00,WeatherDisplay:10.37,2013-03-19 09:36:00,
2013-03-19 04:42:00,34.7,18.9,30.09,ENE,78,3.0,5.0,52,0.00,CLR,CLR,0.00,WeatherDisplay:10.37,2013-03-19 09:42:00,
2013-03-19 04:48:00,34.7,18.8,30.09,East,88,3.0,7.0,52,0.00,CLR,CLR,0.00,WeatherDisplay:10.37,2013-03-19 09:48:00,
2013-03-19 04:54:00,34.5,18.7,30.09,East,86,5.0,6.0,52,0.00,CLR,CLR,0.00,WeatherDisplay:10.37,2013-03-19 09:54:00,
2013-03-19 05:00:00,34.3,18.9,30.09,East,82,7.0,9.0,53,0.00,CLR,CLR,0.00,WeatherDisplay:10.37,2013-03-19 10:00:00,
2013-03-19 05:06:00,34.2,18.8,30.10,East,83,3.0,9.0,53,0.00,CLR,CLR,0.00,WeatherDisplay:10.37,2013-03-19 10:06:00,
2013-03-19 05:12:00,34.2,18.8,30.10,East,95,5.0,7.0,53,0.00,CLR,CLR,0.00,WeatherDisplay:10.37,2013-03-19 10:12:00,
2013-03-19 05:18:00,34.0,18.6,30.10,East,90,5.0,5.0,53,0.00,CLR,CLR,0.00,WeatherDisplay:10.37,2013-03-19 10:18:00,
2013-03-19 05:24:00,33.7,18.8,30.10,East,85,6.0,7.0,54,0.00,CLR,CLR,0.00,WeatherDisplay:10.37,2013-03-19 10:24:00,
2013-03-19 05:30:00,33.4,18.9,30.10,East,79,2.0,6.0,55,0.00,CLR,CLR,0.00,WeatherDisplay:10.37,2013-03-19 10:30:00,
2013-03-19 05:36:00,33.1,19.1,30.10,ENE,71,2.0,5.0,56,0.00,CLR,CLR,0.00,WeatherDisplay:10.37,2013-03-19 10:36:00,
2013-03-19 05:42:00,32.7,19.1,30.11,East,90,2.0,4.0,57,0.00,CLR,CLR,0.00,WeatherDisplay:10.37,2013-03-19 10:42:00,
2013-03-19 05:48:00,32.5,19.3,30.11,East,86,0.0,4.0,58,0.00,CLR,CLR,0.00,WeatherDisplay:10.37,2013-03-19 10:48:00,
2013-03-19 05:54:00,32.4,19.3,30.11,East,89,1.0,5.0,58,0.00,CLR,CLR,0.00,WeatherDisplay:10.37,2013-03-19 10:54:00,
2013-03-19 06:00:00,32.2,19.1,30.11,East,87,0.0,0.0,58,0.00,CLR,CLR,0.00,WeatherDisplay:10.37,2013-03-19 11:00:00,
2013-03-19 06:06:00,32.0,19.3,30.11,East,85,0.0,0.0,59,0.00,CLR,CLR,0.00,WeatherDisplay:10.37,2013-03-19 11:06:00,
2013-03-19 06:12:00,31.8,19.1,30.11,East,88,0.0,0.0,59,0.00,CLR,CLR,0.00,WeatherDisplay:10.37,2013-03-19 11:12:00,
2013-03-19 06:18:00,31.6,18.9,30.11,East,87,0.0,0.0,59,0.00,CLR,CLR,0.00,WeatherDisplay:10.37,2013-03-19 11:18:00,
2013-03-19 06:24:00,31.5,19.2,30.11,East,93,0.0,0.0,60,0.00,CLR,CLR,0.00,WeatherDisplay:10.37,2013-03-19 11:24:00,
2013-03-19 06:30:00,31.3,19.0,30.12,East,91,0.0,0.0,60,0.00,CLR,CLR,0.00,WeatherDisplay:10.37,2013-03-19 11:30:00,
2013-03-19 06:36:00,31.3,19.0,30.12,East,79,2.0,6.0,60,0.00,CLR,CLR,0.00,WeatherDisplay:10.37,2013-03-19 11:36:00,
2013-03-19 06:42:00,31.1,18.8,30.12,East,83,3.0,4.0,60,0.00,CLR,CLR,0.00,WeatherDisplay:10.37,2013-03-19 11:42:00,
2013-03-19 06:48:00,30.9,18.6,30.12,East,90,2.0,5.0,60,0.00,CLR,CLR,0.00,WeatherDisplay:10.37,2013-03-19 11:48:00,
2013-03-19 06:54:00,30.9,18.6,30.13,East,83,0.0,0.0,60,0.00,CLR,CLR,0.00,WeatherDisplay:10.37,2013-03-19 11:54:00,
2013-03-19 07:00:00,30.6,18.3,30.13,ESE,107,0.0,0.0,60,0.00,CLR,CLR,0.00,WeatherDisplay:10.37,2013-03-19 12:00:00,
2013-03-19 07:06:00,30.2,18.7,30.14,East,86,2.0,3.0,62,0.00,CLR,CLR,0.00,WeatherDisplay:10.37,2013-03-19 12:06:00,
2013-03-19 07:12:00,30.2,19.1,30.14,East,83,3.0,4.0,63,0.00,CLR,CLR,0.00,WeatherDisplay:10.37,2013-03-19 12:12:00,
2013-03-19 07:18:00,30.2,19.1,30.14,East,90,0.0,0.0,63,0.00,CLR,CLR,0.00,WeatherDisplay:10.37,2013-03-19 12:18:00,
2013-03-19 07:24:00,30.4,19.3,30.14,SSE,167,0.0,0.0,63,0.00,CLR,CLR,0.00,WeatherDisplay:10.37,2013-03-19 12:24:00,
2013-03-19 07:30:00,29.7,19.0,30.14,SSE,152,0.0,0.0,64,0.00,CLR,CLR,0.00,WeatherDisplay:10.37,2013-03-19 12:30:00,
2013-03-19 07:36:00,29.7,18.6,30.14,East,98,3.0,6.0,63,0.00,CLR,CLR,0.00,WeatherDisplay:10.37,2013-03-19 12:36:00,
2013-03-19 07:42:00,30.6,18.3,30.14,East,89,2.0,4.0,60,0.00,CLR,CLR,0.00,WeatherDisplay:10.37,2013-03-19 12:42:00,
2013-03-19 07:48:00,30.7,18.4,30.14,ESE,122,0.0,0.0,60,0.00,CLR,CLR,0.00,WeatherDisplay:10.37,2013-03-19 12:48:00,
2013-03-19 07:54:00,30.8,18.2,30.15,South,181,0.0,0.0,59,0.00,CLR,CLR,0.00,WeatherDisplay:10.37,2013-03-19 12:54:00,
2013-03-19 08:00:00,30.4,18.2,30.15,SE,133,0.0,0.0,60,0.00,CLR,CLR,0.00,WeatherDisplay:10.37,2013-03-19 13:00:00,
2013-03-19 08:06:00,31.3,17.8,30.15,East,88,6.0,7.0,57,0.00,SCT,SCT,0.00,WeatherDisplay:10.37,2013-03-19 13:06:00,
2013-03-19 08:12:00,32.5,18.1,30.15,East,93,5.0,7.0,55,0.00,SCT,SCT,0.00,WeatherDisplay:10.37,2013-03-19 13:12:00,
2013-03-19 08:18:00,33.4,18.5,30.15,ESE,104,5.0,7.0,54,0.00,SCT,SCT,0.00,WeatherDisplay:10.37,2013-03-19 13:18:00,
2013-03-19 08:24:00,33.8,18.5,30.15,ESE,115,5.0,6.0,53,0.00,SCT,SCT,0.00,WeatherDisplay:10.37,2013-03-19 13:24:00,
2013-03-19 08:30:00,34.3,18.5,30.15,ESE,110,5.0,8.0,52,0.00,SCT,SCT,0.00,WeatherDisplay:10.37,2013-03-19 13:30:00,
2013-03-19 08:36:00,34.7,18.9,30.15,East,101,7.0,9.0,52,0.00,SCT,SCT,0.00,WeatherDisplay:10.37,2013-03-19 13:36:00,
2013-03-19 08:42:00,35.4,19.0,30.15,East,87,6.0,7.0,51,0.00,SCT,SCT,0.00,WeatherDisplay:10.37,2013-03-19 13:42:00,
2013-03-19 08:48:00,36.3,18.9,30.15,East,88,3.0,6.0,49,0.00,SCT,SCT,0.00,WeatherDisplay:10.37,2013-03-19 13:48:00,
2013-03-19 08:54:00,36.7,18.8,30.16,East,94,6.0,8.0,48,0.00,SCT,SCT,0.00,WeatherDisplay:10.37,2013-03-19 13:54:00,
2013-03-19 09:00:00,37.0,18.6,30.16,East,96,2.0,9.0,47,0.00,SCT,SCT,0.00,WeatherDisplay:10.37,2013-03-19 14:00:00,
2013-03-19 09:06:00,37.4,19.0,30.16,East,101,6.0,9.0,47,0.00,BKN,BKN,0.00,WeatherDisplay:10.37,2013-03-19 14:06:00,
2013-03-19 09:12:00,37.4,18.5,30.16,ENE,58,9.0,9.0,46,0.00,BKN,BKN,0.00,WeatherDisplay:10.37,2013-03-19 14:12:00,
2013-03-19 09:18:00,38.2,18.7,30.16,ENE,71,7.0,10.0,45,0.00,BKN,BKN,0.00,WeatherDisplay:10.37,2013-03-19 14:18:00,
2013-03-19 09:24:00,39.0,18.4,30.16,ESE,103,8.0,10.0,43,0.00,BKN,BKN,0.00,WeatherDisplay:10.37,2013-03-19 14:24:00,
2013-03-19 09:30:00,39.2,18.5,30.16,ESE,105,3.0,4.0,43,0.00,BKN,BKN,0.00,WeatherDisplay:10.37,2013-03-19 14:30:00,
2013-03-19 09:36:00,39.2,18.5,30.16,ESE,112,3.0,4.0,43,0.00,BKN,BKN,0.00,WeatherDisplay:10.37,2013-03-19 14:36:00,
2013-03-19 09:42:00,39.2,18.5,30.16,ESE,112,3.0,4.0,43,0.00,BKN,BKN,0.00,WeatherDisplay:10.37,2013-03-19 14:42:00,
2013-03-19 09:48:00,39.2,18.5,30.16,ESE,112,3.0,4.0,43,0.00,BKN,BKN,0.00,WeatherDisplay:10.37,2013-03-19 14:48:00,
2013-03-19 09:54:00,39.2,18.5,30.16,ESE,112,3.0,4.0,43,0.00,BKN,BKN,0.00,WeatherDisplay:10.37,2013-03-19 14:54:00,
2013-03-19 10:00:00,39.2,18.5,30.16,ESE,112,3.0,4.0,43,0.00,BKN,BKN,0.00,WeatherDisplay:10.37,2013-03-19 15:00:00,
2013-03-19 10:06:00,39.2,18.5,30.16,ESE,112,3.0,4.0,43,0.00,BKN,BKN,0.00,WeatherDisplay:10.37,2013-03-19 15:06:00,
2013-03-19 10:12:00,39.2,18.5,30.16,ESE,112,3.0,4.0,43,0.00,BKN,BKN,0.00,WeatherDisplay:10.37,2013-03-19 15:12:00,
2013-03-19 10:18:00,39.2,18.5,30.16,ESE,112,3.0,4.0,43,0.00,BKN,BKN,0.00,WeatherDisplay:10.37,2013-03-19 15:18:00,
2013-03-19 10:24:00,39.2,18.5,30.16,ESE,112,3.0,4.0,43,0.00,BKN,BKN,0.00,WeatherDisplay:10.37,2013-03-19 15:24:00,
2013-03-19 10:30:00,39.2,18.5,30.16,ESE,112,3.0,4.0,43,0.00,BKN,BKN,0.00,WeatherDisplay:10.37,2013-03-19 15:30:00,
2013-03-19 10:36:00,39.2,18.5,30.16,ESE,112,3.0,4.0,43,0.00,BKN,BKN,0.00,WeatherDisplay:10.37,2013-03-19 15:36:00,
2013-03-19 10:42:00,39.2,18.5,30.16,ESE,112,3.0,4.0,43,0.00,BKN,BKN,0.00,WeatherDisplay:10.37,2013-03-19 15:42:00,
2013-03-19 10:48:00,44.9,20.2,30.17,SE,127,8.0,12.0,37,0.00,BKN,BKN,0.00,WeatherDisplay:10.37,2013-03-19 15:48:00,
2013-03-19 10:54:00,45.3,20.5,30.17,SE,127,7.0,10.0,37,0.00,BKN,BKN,0.00,WeatherDisplay:10.37,2013-03-19 15:54:00,
2013-03-19 11:00:00,45.1,20.4,30.17,ESE,106,8.0,13.0,37,0.00,BKN,BKN,0.00,WeatherDisplay:10.37,2013-03-19 16:00:00,
2013-03-19 11:06:00,45.6,21.4,30.17,East,98,8.0,14.0,38,0.00,BKN,BKN,0.00,WeatherDisplay:10.37,2013-03-19 16:06:00,
2013-03-19 11:12:00,45.8,21.0,30.17,East,100,8.0,12.0,37,0.00,BKN,BKN,0.00,WeatherDisplay:10.37,2013-03-19 16:12:00,
2013-03-19 11:18:00,46.8,21.2,30.17,ESE,116,7.0,9.0,36,0.00,BKN,BKN,0.00,WeatherDisplay:10.37,2013-03-19 16:18:00,
2013-03-19 11:24:00,46.6,21.1,30.17,East,93,8.0,15.0,36,0.00,BKN,BKN,0.00,WeatherDisplay:10.37,2013-03-19 16:24:00,
2013-03-19 11:30:00,46.8,21.2,30.17,East,101,9.0,12.0,36,0.00,BKN,BKN,0.00,WeatherDisplay:10.37,2013-03-19 16:30:00,
2013-03-19 11:36:00,47.1,21.5,30.17,East,100,13.0,16.0,36,0.00,BKN,BKN,0.00,WeatherDisplay:10.37,2013-03-19 16:36:00,
2013-03-19 11:42:00,47.9,22.2,30.17,East,96,8.0,12.0,36,0.00,BKN,BKN,0.00,WeatherDisplay:10.37,2013-03-19 16:42:00,
2013-03-19 11:48:00,48.7,21.6,30.17,ESE,112,7.0,14.0,34,0.00,BKN,BKN,0.00,WeatherDisplay:10.37,2013-03-19 16:48:00,
2013-03-19 11:54:00,49.3,21.4,30.17,ESE,102,8.0,14.0,33,0.00,BKN,BKN,0.00,WeatherDisplay:10.37,2013-03-19 16:54:00,
2013-03-19 12:00:00,50.6,22.5,30.17,ESE,111,7.0,9.0,33,0.00,BKN,BKN,0.00,WeatherDisplay:10.37,2013-03-19 17:00:00,
2013-03-19 12:06:00,50.4,21.6,30.18,ESE,106,8.0,20.0,32,0.00,BKN,BKN,0.00,WeatherDisplay:10.37,2013-03-19 17:06:00,
2013-03-19 12:12:00,50.0,22.0,30.18,ESE,119,8.0,9.0,33,0.00,BKN,BKN,0.00,WeatherDisplay:10.37,2013-03-19 17:12:00,
2013-03-19 12:18:00,50.7,21.9,30.18,SSE,148,8.0,14.0,32,0.00,BKN,BKN,0.00,WeatherDisplay:10.37,2013-03-19 17:18:00,
2013-03-19 12:24:00,50.8,21.2,30.18,SE,133,8.0,14.0,31,0.00,BKN,BKN,0.00,WeatherDisplay:10.37,2013-03-19 17:24:00,
2013-03-19 12:30:00,50.7,21.1,30.17,SE,129,8.0,12.0,31,0.00,BKN,BKN,0.00,WeatherDisplay:10.37,2013-03-19 17:30:00,
2013-03-19 12:36:00,51.2,21.5,30.17,ESE,116,8.0,9.0,31,0.00,BKN,BKN,0.00,WeatherDisplay:10.37,2013-03-19 17:36:00,
2013-03-19 12:42:00,50.9,21.3,30.17,ESE,123,5.0,9.0,31,0.00,BKN,BKN,0.00,WeatherDisplay:10.37,2013-03-19 17:42:00,
2013-03-19 12:48:00,51.6,21.2,30.17,ESE,117,8.0,10.0,30,0.00,BKN,BKN,0.00,WeatherDisplay:10.37,2013-03-19 17:48:00,
2013-03-19 12:54:00,52.0,21.5,30.17,SE,129,8.0,10.0,30,0.00,BKN,BKN,0.00,WeatherDisplay:10.37,2013-03-19 17:54:00,
2013-03-19 13:00:00,52.1,21.6,30.17,SE,145,6.0,9.0,30,0.00,BKN,BKN,0.00,WeatherDisplay:10.37,2013-03-19 18:00:00,
2013-03-19 13:06:00,52.4,21.8,30.17,SE,135,7.0,9.0,30,0.00,BKN,BKN,0.00,WeatherDisplay:10.37,2013-03-19 18:06:00,
2013-03-19 13:12:00,52.9,21.5,30.18,SSE,156,6.0,6.0,29,0.00,BKN,BKN,0.00,WeatherDisplay:10.37,2013-03-19 18:12:00,
2013-03-19 13:18:00,53.6,22.1,30.18,SE,145,5.0,7.0,29,0.00,BKN,BKN,0.00,WeatherDisplay:10.37,2013-03-19 18:18:00,
2013-03-19 13:24:00,53.4,21.9,30.18,SE,133,7.0,10.0,29,0.00,BKN,BKN,0.00,WeatherDisplay:10.37,2013-03-19 18:24:00,
2013-03-19 13:30:00,53.3,21.8,30.18,SE,132,5.0,7.0,29,0.00,BKN,BKN,0.00,WeatherDisplay:10.37,2013-03-19 18:30:00,
2013-03-19 13:36:00,54.1,23.3,30.17,West,273,7.0,12.0,30,0.00,BKN,BKN,0.00,WeatherDisplay:10.37,2013-03-19 18:36:00,
2013-03-19 13:42:00,54.4,23.6,30.17,East,91,5.0,7.0,30,0.00,BKN,BKN,0.00,WeatherDisplay:10.37,2013-03-19 18:42:00,
2013-03-19 13:48:00,53.6,22.9,30.17,SSE,163,12.0,14.0,30,0.00,BKN,BKN,0.00,WeatherDisplay:10.37,2013-03-19 18:48:00,
2013-03-19 13:54:00,54.3,23.5,30.17,SSE,161,3.0,5.0,30,0.00,BKN,BKN,0.00,WeatherDisplay:10.37,2013-03-19 18:54:00,
2013-03-19 14:00:00,53.1,22.5,30.17,SSW,204,2.0,12.0,30,0.00,BKN,BKN,0.00,WeatherDisplay:10.37,2013-03-19 19:00:00,
2013-03-19 14:06:00,54.1,23.3,30.17,SSE,151,5.0,13.0,30,0.00,BKN,BKN,0.00,WeatherDisplay:10.37,2013-03-19 19:06:00,
2013-03-19 14:12:00,53.8,23.0,30.17,SSW,212,10.0,13.0,30,0.00,BKN,BKN,0.00,WeatherDisplay:10.37,2013-03-19 19:12:00,
2013-03-19 14:18:00,53.0,22.3,30.17,South,184,6.0,10.0,30,0.00,BKN,BKN,0.00,WeatherDisplay:10.37,2013-03-19 19:18:00,
2013-03-19 14:24:00,54.9,24.0,30.17,WSW,251,6.0,7.0,30,0.00,BKN,BKN,0.00,WeatherDisplay:10.37,2013-03-19 19:24:00,
2013-03-19 14:30:00,55.6,24.6,30.16,WSW,242,3.0,9.0,30,0.00,BKN,BKN,0.00,WeatherDisplay:10.37,2013-03-19 19:30:00,
2013-03-19 14:36:00,54.9,24.0,30.16,SSE,168,5.0,7.0,30,0.00,BKN,BKN,0.00,WeatherDisplay:10.37,2013-03-19 19:36:00,
2013-03-19 14:42:00,55.0,24.1,30.16,SSE,152,8.0,12.0,30,0.00,BKN,BKN,0.00,WeatherDisplay:10.37,2013-03-19 19:42:00,
2013-03-19 14:48:00,55.7,24.7,30.16,SSE,156,8.0,9.0,30,0.00,BKN,BKN,0.00,WeatherDisplay:10.37,2013-03-19 19:48:00,
2013-03-19 14:54:00,54.7,23.8,30.16,SW,215,9.0,12.0,30,0.00,BKN,BKN,0.00,WeatherDisplay:10.37,2013-03-19 19:54:00,
2013-03-19 15:00:00,53.9,23.1,30.16,WNW,286,8.0,10.0,30,0.00,BKN,BKN,0.00,WeatherDisplay:10.37,2013-03-19 20:00:00,
2013-03-19 15:06:00,55.0,24.9,30.15,West,273,3.0,10.0,31,0.00,BKN,BKN,0.00,WeatherDisplay:10.37,2013-03-19 20:06:00,
2013-03-19 15:12:00,54.3,24.3,30.15,SSE,160,7.0,9.0,31,0.00,BKN,BKN,0.00,WeatherDisplay:10.37,2013-03-19 20:12:00,
2013-03-19 15:18:00,53.8,23.8,30.15,South,188,5.0,6.0,31,0.00,BKN,BKN,0.00,WeatherDisplay:10.37,2013-03-19 20:18:00,
2013-03-19 15:24:00,53.9,24.0,30.15,NW,305,2.0,4.0,31,0.00,BKN,BKN,0.00,WeatherDisplay:10.37,2013-03-19 20:24:00,
2013-03-19 15:30:00,54.7,23.9,30.14,NW,312,2.0,6.0,30,0.00,BKN,BKN,0.00,WeatherDisplay:10.37,2013-03-19 20:30:00,
2013-03-19 15:36:00,54.7,24.6,30.14,WNW,283,5.0,7.0,31,0.00,BKN,BKN,0.00,WeatherDisplay:10.37,2013-03-19 20:36:00,
2013-03-19 15:42:00,55.0,25.7,30.15,West,267,2.0,7.0,32,0.00,BKN,BKN,0.00,WeatherDisplay:10.37,2013-03-19 20:42:00,
2013-03-19 15:48:00,55.1,24.2,30.14,SW,235,3.0,6.0,30,0.00,BKN,BKN,0.00,WeatherDisplay:10.37,2013-03-19 20:48:00,
2013-03-19 15:54:00,54.4,25.1,30.14,SE,128,5.0,6.0,32,0.00,BKN,BKN,0.00,WeatherDisplay:10.37,2013-03-19 20:54:00,
2013-03-19 16:00:00,54.3,24.3,30.14,SE,140,1.0,6.0,31,0.00,BKN,BKN,0.00,WeatherDisplay:10.37,2013-03-19 21:00:00,
2013-03-19 16:06:00,53.4,24.2,30.14,West,279,3.0,7.0,32,0.00,OVC,OVC,0.00,WeatherDisplay:10.37,2013-03-19 21:06:00,
2013-03-19 16:12:00,55.4,25.2,30.14,WNW,300,3.0,10.0,31,0.00,OVC,OVC,0.00,WeatherDisplay:10.37,2013-03-19 21:12:00,
2013-03-19 16:18:00,55.0,24.1,30.15,NW,325,2.0,4.0,30,0.00,OVC,OVC,0.00,WeatherDisplay:10.37,2013-03-19 21:18:00,
2013-03-19 16:24:00,55.4,24.4,30.15,WNW,287,9.0,14.0,30,0.00,OVC,OVC,0.00,WeatherDisplay:10.37,2013-03-19 21:24:00,
2013-03-19 16:30:00,55.7,24.7,30.14,WNW,286,3.0,6.0,30,0.00,OVC,OVC,0.00,WeatherDisplay:10.37,2013-03-19 21:30:00,
2013-03-19 16:36:00,55.7,24.7,30.14,WNW,292,6.0,9.0,30,0.00,OVC,OVC,0.00,WeatherDisplay:10.37,2013-03-19 21:36:00,
2013-03-19 16:42:00,56.3,25.2,30.15,WNW,294,2.0,5.0,30,0.00,OVC,OVC,0.00,WeatherDisplay:10.37,2013-03-19 21:42:00,
2013-03-19 16:48:00,54.9,24.8,30.15,ENE,77,3.0,7.0,31,0.00,OVC,OVC,0.00,WeatherDisplay:10.37,2013-03-19 21:48:00,
2013-03-19 16:54:00,56.4,25.3,30.15,NNE,23,3.0,8.0,30,0.00,OVC,OVC,0.00,WeatherDisplay:10.37,2013-03-19 21:54:00,
2013-03-19 17:00:00,56.1,25.8,30.15,NE,55,5.0,7.0,31,0.00,OVC,OVC,0.00,WeatherDisplay:10.37,2013-03-19 22:00:00,
2013-03-19 17:06:00,55.8,24.8,30.15,North,352,3.0,4.0,30,0.00,BKN,BKN,0.00,WeatherDisplay:10.37,2013-03-19 22:06:00,
2013-03-19 17:12:00,55.5,25.3,30.15,NNW,330,2.0,6.0,31,0.00,BKN,BKN,0.00,WeatherDisplay:10.37,2013-03-19 22:12:00,
2013-03-19 17:18:00,55.4,25.2,30.15,NE,48,3.0,7.0,31,0.00,BKN,BKN,0.00,WeatherDisplay:10.37,2013-03-19 22:18:00,
2013-03-19 17:24:00,55.6,25.4,30.15,ENE,62,2.0,8.0,31,0.00,BKN,BKN,0.00,WeatherDisplay:10.37,2013-03-19 22:24:00,
2013-03-19 17:30:00,54.5,25.2,30.15,East,85,5.0,9.0,32,0.00,BKN,BKN,0.00,WeatherDisplay:10.37,2013-03-19 22:30:00,
2013-03-19 17:36:00,53.8,24.6,30.15,ENE,77,7.0,8.0,32,0.00,BKN,BKN,0.00,WeatherDisplay:10.37,2013-03-19 22:36:00,
2013-03-19 17:42:00,54.1,24.9,30.15,ENE,70,6.0,12.0,32,0.00,BKN,BKN,0.00,WeatherDisplay:10.37,2013-03-19 22:42:00,
2013-03-19 17:48:00,53.0,26.0,30.15,East,87,9.0,14.0,35,0.00,BKN,BKN,0.00,WeatherDisplay:10.37,2013-03-19 22:48:00,
2013-03-19 17:54:00,52.2,26.7,30.15,ENE,77,8.0,13.0,37,0.00,BKN,BKN,0.00,WeatherDisplay:10.37,2013-03-19 22:54:00,
2013-03-19 18:00:00,51.6,26.8,30.15,ESE,106,8.0,20.0,38,0.00,BKN,BKN,0.00,WeatherDisplay:10.37,2013-03-19 23:00:00,
2013-03-19 18:06:00,51.6,26.8,30.15,East,92,8.0,16.0,38,0.00,BKN,BKN,0.00,WeatherDisplay:10.37,2013-03-19 23:06:00,
2013-03-19 18:12:00,51.6,26.8,30.16,East,84,12.0,16.0,38,0.00,BKN,BKN,0.00,WeatherDisplay:10.37,2013-03-19 23:12:00,
2013-03-19 18:18:00,50.5,27.0,30.16,East,83,15.0,17.0,40,0.00,BKN,BKN,0.00,WeatherDisplay:10.37,2013-03-19 23:18:00,
2013-03-19 18:24:00,50.5,27.0,30.16,East,85,16.0,18.0,40,0.00,BKN,BKN,0.00,WeatherDisplay:10.37,2013-03-19 23:24:00,
2013-03-19 18:30:00,50.4,27.0,30.16,ENE,78,8.0,14.0,40,0.00,BKN,BKN,0.00,WeatherDisplay:10.37,2013-03-19 23:30:00,
2013-03-19 18:36:00,50.7,27.2,30.16,ENE,75,12.0,16.0,40,0.00,BKN,BKN,0.00,WeatherDisplay:10.37,2013-03-19 23:36:00,
2013-03-19 18:42:00,50.4,27.0,30.16,ENE,77,10.0,15.0,40,0.00,BKN,BKN,0.00,WeatherDisplay:10.37,2013-03-19 23:42:00,
2013-03-19 18:48:00,49.9,26.5,30.16,East,89,12.0,19.0,40,0.00,BKN,BKN,0.00,WeatherDisplay:10.37,2013-03-19 23:48:00,
2013-03-19 18:54:00,49.5,26.1,30.16,East,89,12.0,15.0,40,0.00,BKN,BKN,0.00,WeatherDisplay:10.37,2013-03-19 23:54:00,
2013-03-19 19:00:00,49.2,26.4,30.16,East,85,13.0,16.0,41,0.00,BKN,BKN,0.00,WeatherDisplay:10.37,2013-03-20 00:00:00,
2013-03-19 19:06:00,48.6,25.9,30.16,ENE,70,14.0,16.0,41,0.00,BKN,BKN,0.00,WeatherDisplay:10.37,2013-03-20 00:06:00,
2013-03-19 19:12:00,48.4,26.3,30.16,ENE,74,6.0,14.0,42,0.00,BKN,BKN,0.00,WeatherDisplay:10.37,2013-03-20 00:12:00,
2013-03-19 19:18:00,47.7,26.8,30.17,ENE,71,8.0,22.0,44,0.00,BKN,BKN,0.00,WeatherDisplay:10.37,2013-03-20 00:18:00,
2013-03-19 19:24:00,47.3,26.5,30.18,ENE,71,8.0,16.0,44,0.00,BKN,BKN,0.00,WeatherDisplay:10.37,2013-03-20 00:24:00,
2013-03-19 19:30:00,46.9,26.6,30.18,East,83,10.0,14.0,45,0.00,BKN,BKN,0.00,WeatherDisplay:10.37,2013-03-20 00:30:00,
2013-03-19 19:36:00,46.8,26.6,30.18,East,80,8.0,14.0,45,0.00,BKN,BKN,0.00,WeatherDisplay:10.37,2013-03-20 00:36:00,
2013-03-19 19:42:00,46.4,26.7,30.18,ENE,78,6.0,16.0,46,0.00,BKN,BKN,0.00,WeatherDisplay:10.37,2013-03-20 00:42:00,
2013-03-19 19:48:00,46.0,26.9,30.18,ENE,75,8.0,14.0,47,0.00,BKN,BKN,0.00,WeatherDisplay:10.37,2013-03-20 00:48:00,
2013-03-19 19:54:00,45.5,26.9,30.19,East,82,7.0,12.0,48,0.00,BKN,BKN,0.00,WeatherDisplay:10.37,2013-03-20 00:54:00,
2013-03-19 20:00:00,45.3,27.2,30.19,East,86,8.0,15.0,49,0.00,BKN,BKN,0.00,WeatherDisplay:10.37,2013-03-20 01:00:00,
2013-03-19 20:06:00,45.0,27.5,30.20,East,84,6.0,12.0,50,0.00,BKN,BKN,0.00,WeatherDisplay:10.37,2013-03-20 01:06:00,
2013-03-19 20:12:00,44.9,28.3,30.20,East,86,6.0,9.0,52,0.00,BKN,BKN,0.00,WeatherDisplay:10.37,2013-03-20 01:12:00,
2013-03-19 20:18:00,44.6,28.5,30.21,East,86,5.0,9.0,53,0.00,BKN,BKN,0.00,WeatherDisplay:10.37,2013-03-20 01:18:00,
2013-03-19 20:24:00,44.4,28.8,30.22,ENE,76,7.0,12.0,54,0.00,BKN,BKN,0.00,WeatherDisplay:10.37,2013-03-20 01:24:00,
2013-03-19 20:30:00,44.2,29.5,30.22,East,96,6.0,10.0,56,0.00,BKN,BKN,0.00,WeatherDisplay:10.37,2013-03-20 01:30:00,
2013-03-19 20:36:00,43.9,29.6,30.22,East,87,13.0,16.0,57,0.00,BKN,BKN,0.00,WeatherDisplay:10.37,2013-03-20 01:36:00,
2013-03-19 20:42:00,43.9,30.1,30.23,ENE,73,9.0,12.0,58,0.00,BKN,BKN,0.00,WeatherDisplay:10.37,2013-03-20 01:42:00,
2013-03-19 20:48:00,43.7,30.3,30.23,ENE,75,6.0,12.0,59,0.00,BKN,BKN,0.00,WeatherDisplay:10.37,2013-03-20 01:48:00,
2013-03-19 20:54:00,43.3,30.3,30.23,East,91,9.0,15.0,60,0.00,BKN,BKN,0.00,WeatherDisplay:10.37,2013-03-20 01:54:00,
2013-03-19 21:00:00,43.3,31.1,30.23,East,91,5.0,9.0,62,0.00,BKN,BKN,0.00,WeatherDisplay:10.37,2013-03-20 02:00:00,
2013-03-19 21:06:00,43.0,31.3,30.24,East,79,6.0,12.0,63,0.00,SCT,SCT,0.00,WeatherDisplay:10.37,2013-03-20 02:06:00,
2013-03-19 21:12:00,42.8,31.5,30.24,ENE,77,6.0,9.0,64,0.00,SCT,SCT,0.00,WeatherDisplay:10.37,2013-03-20 02:12:00,
2013-03-19 21:18:00,42.4,31.5,30.25,ENE,74,9.0,12.0,65,0.00,SCT,SCT,0.00,WeatherDisplay:10.37,2013-03-20 02:18:00,
2013-03-19 21:24:00,42.3,31.7,30.25,East,81,6.0,15.0,66,0.00,SCT,SCT,0.00,WeatherDisplay:10.37,2013-03-20 02:24:00,
2013-03-19 21:30:00,42.1,31.9,30.26,East,85,3.0,4.0,67,0.00,SCT,SCT,0.00,WeatherDisplay:10.37,2013-03-20 02:30:00,
2013-03-19 21:36:00,41.5,32.1,30.26,East,91,7.0,14.0,69,0.00,SCT,SCT,0.00,WeatherDisplay:10.37,2013-03-20 02:36:00,
2013-03-19 21:42:00,41.4,32.0,30.26,East,86,7.0,7.0,69,0.00,SCT,SCT,0.00,WeatherDisplay:10.37,2013-03-20 02:42:00,
2013-03-19 21:48:00,41.0,32.0,30.25,East,91,9.0,12.0,70,0.00,SCT,SCT,0.00,WeatherDisplay:10.37,2013-03-20 02:48:00,
2013-03-19 21:54:00,40.8,32.1,30.24,East,87,7.0,14.0,71,0.00,SCT,SCT,0.00,WeatherDisplay:10.37,2013-03-20 02:54:00,
2013-03-19 22:00:00,40.6,31.9,30.24,East,84,7.0,13.0,71,0.00,SCT,SCT,0.00,WeatherDisplay:10.37,2013-03-20 03:00:00,
2013-03-19 22:06:00,40.5,32.2,30.24,East,91,8.0,16.0,72,0.00,SCT,SCT,0.00,WeatherDisplay:10.37,2013-03-20 03:06:00,
2013-03-19 22:12:00,40.2,31.9,30.24,East,85,5.0,10.0,72,0.00,SCT,SCT,0.00,WeatherDisplay:10.37,2013-03-20 03:12:00,
2013-03-19 22:18:00,40.1,32.1,30.25,East,94,6.0,9.0,73,0.00,SCT,SCT,0.00,WeatherDisplay:10.37,2013-03-20 03:18:00,
2013-03-19 22:24:00,39.9,31.9,30.24,East,95,7.0,12.0,73,0.00,SCT,SCT,0.00,WeatherDisplay:10.37,2013-03-20 03:24:00,
2013-03-19 22:30:00,39.6,32.3,30.24,East,90,5.0,6.0,75,0.00,SCT,SCT,0.00,WeatherDisplay:10.37,2013-03-20 03:30:00,
2013-03-19 22:36:00,39.5,32.2,30.24,East,93,3.0,4.0,75,0.00,SCT,SCT,0.00,WeatherDisplay:10.37,2013-03-20 03:36:00,
2013-03-19 22:42:00,39.2,32.3,30.25,East,95,5.0,8.0,76,0.00,SCT,SCT,0.00,WeatherDisplay:10.37,2013-03-20 03:42:00,
2013-03-19 22:48:00,39.0,32.1,30.25,East,93,7.0,9.0,76,0.00,SCT,SCT,0.00,WeatherDisplay:10.37,2013-03-20 03:48:00,
2013-03-19 22:54:00,38.8,31.9,30.26,East,93,5.0,7.0,76,0.00,SCT,SCT,0.00,WeatherDisplay:10.37,2013-03-20 03:54:00,
2013-03-19 23:00:00,38.7,31.8,30.26,East,93,0.0,5.0,76,0.00,SCT,SCT,0.00,WeatherDisplay:10.37,2013-03-20 04:00:00,
2013-03-19 23:03:00,38.5,31.9,30.26,East,95,0.0,0.0,77,0.00,SCT,SCT,0.00,WeatherDisplay:10.37,2013-03-20 04:03:00,
2013-03-19 23:06:00,38.3,31.7,30.26,ESE,119,0.0,0.0,77,0.00,SCT,SCT,0.00,WeatherDisplay:10.37,2013-03-20 04:06:00,
2013-03-19 23:09:00,38.0,31.5,30.26,SE,129,0.0,0.0,77,0.00,SCT,SCT,0.00,WeatherDisplay:10.37,2013-03-20 04:09:00,
2013-03-19 23:15:00,37.7,31.4,30.26,East,92,1.0,3.0,78,0.00,SCT,SCT,0.00,WeatherDisplay:10.37,2013-03-20 04:15:00,
2013-03-19 23:21:00,37.4,31.5,30.26,ESE,102,0.0,0.0,79,0.00,SCT,SCT,0.00,WeatherDisplay:10.37,2013-03-20 04:21:00,
2013-03-19 23:27:00,36.9,31.0,30.27,ESE,109,0.0,0.0,79,0.00,SCT,SCT,0.00,WeatherDisplay:10.37,2013-03-20 04:27:00,
2013-03-19 23:33:00,36.5,31.0,30.27,ESE,112,0.0,0.0,80,0.00,SCT,SCT,0.00,WeatherDisplay:10.37,2013-03-20 04:33:00,
2013-03-19 23:39:00,36.3,31.0,30.27,ESE,120,1.0,2.0,81,0.00,SCT,SCT,0.00,WeatherDisplay:10.37,2013-03-20 04:39:00,
2013-03-19 23:45:00,36.4,31.1,30.27,SSE,165,1.0,2.0,81,0.00,SCT,SCT,0.00,WeatherDisplay:10.37,2013-03-20 04:45:00,
2013-03-19 23:51:00,35.8,30.5,30.28,South,169,0.0,2.0,81,0.00,SCT,SCT,0.00,WeatherDisplay:10.37,2013-03-20 04:51:00,
2013-03-19 23:57:00,35.5,30.5,30.28,ESE,117,0.0,0.0,82,0.00,SCT,SCT,0.00,WeatherDisplay:10.37,2013-03-20 04:57:00,